Time;durP1;ratioP1;P1;durP2;ratioP2;P2;SDS_P1;SDS_P2;PMS_P1;PMS_P2;Temp;Humidity;BMP_temperature;BMP_pressure;BME280_temperature;BME280_humidity;BME280_pressure;Samples;Min_cycle;Max_cycle;Signal;HPM_P1;HPM_P2
2023/09/01 00:00:50;;;;;;;4.65;2.00;;;16.10;99.90;;;;;;4160101;28;20184;-65
2023/09/01 00:02:51;;;;;;;2.80;1.77;;;16.10;99.90;;;;;;4162781;28;20037;-65
2023/09/01 00:04:51;;;;;;;3.03;1.52;;;16.10;99.90;;;;;;4162650;28;20033;-65
2023/09/01 00:06:52;;;;;;;3.03;1.98;;;16.10;99.90;;;;;;4161856;28;20041;-64
2023/09/01 00:08:53;;;;;;;4.07;2.05;;;16.00;99.90;;;;;;4161034;28;20037;-65
2023/09/01 00:10:53;;;;;;;3.70;1.88;;;15.90;99.90;;;;;;4161851;28;20037;-65
2023/09/01 00:12:55;;;;;;;2.17;1.88;;;15.80;99.90;;;;;;4163420;28;20478;-72
2023/09/01 00:14:55;;;;;;;4.07;2.15;;;15.70;99.90;;;;;;4169277;28;20030;-72
2023/09/01 00:16:56;;;;;;;3.28;1.63;;;15.70;99.90;;;;;;4161406;28;20036;-72
2023/09/01 00:18:57;;;;;;;4.13;2.10;;;15.70;99.90;;;;;;4162563;28;20473;-71
2023/09/01 00:21:03;;;;;;;4.03;2.03;;;15.70;99.90;;;;;;4161769;28;20026;-71
2023/09/01 00:23:04;;;;;;;2.60;1.90;;;15.70;99.90;;;;;;4161372;28;20044;-71
2023/09/01 00:25:05;;;;;;;1.83;1.50;;;15.70;99.90;;;;;;4162196;28;20034;-72
2023/09/01 00:27:06;;;;;;;3.20;1.88;;;15.70;99.90;;;;;;4160352;28;20026;-72
2023/09/01 00:29:06;;;;;;;2.83;1.88;;;15.70;99.90;;;;;;4159862;28;20082;-72
2023/09/01 00:31:07;;;;;;;1.70;1.52;;;15.70;99.90;;;;;;4161070;28;24595;-71
2023/09/01 00:33:07;;;;;;;4.57;1.83;;;15.70;99.90;;;;;;4162197;28;20038;-72
2023/09/01 00:35:08;;;;;;;3.75;1.90;;;15.70;99.90;;;;;;4161887;28;20033;-71
2023/09/01 00:37:09;;;;;;;3.58;2.05;;;15.70;99.90;;;;;;4162084;28;20116;-72
2023/09/01 00:39:10;;;;;;;1.70;1.38;;;15.70;99.90;;;;;;4162292;28;20025;-72
2023/09/01 00:41:10;;;;;;;3.25;1.58;;;15.70;99.90;;;;;;4161182;28;20437;-72
2023/09/01 00:43:11;;;;;;;1.98;1.67;;;15.70;99.90;;;;;;4160892;28;20033;-72
2023/09/01 00:45:12;;;;;;;2.15;1.45;;;15.70;99.90;;;;;;4153022;28;20585;-72
2023/09/01 00:47:13;;;;;;;2.30;1.70;;;15.70;99.90;;;;;;4159993;28;20056;-72
2023/09/01 00:49:17;;;;;;;3.13;1.63;;;15.70;99.90;;;;;;4161997;28;20056;-72
2023/09/01 00:51:18;;;;;;;3.22;1.77;;;15.70;99.90;;;;;;4158512;28;20544;-70
2023/09/01 00:53:21;;;;;;;5.15;1.88;;;15.70;99.90;;;;;;4177028;28;20041;-72
2023/09/01 00:55:22;;;;;;;3.08;1.83;;;15.70;99.90;;;;;;4161147;28;20044;-72
2023/09/01 00:57:23;;;;;;;2.58;1.60;;;15.80;99.90;;;;;;4160273;28;20034;-72
2023/09/01 00:59:24;;;;;;;2.08;1.27;;;15.80;99.90;;;;;;4153063;28;20034;-72
2023/09/01 01:01:24;;;;;;;2.55;1.63;;;15.80;99.90;;;;;;4157431;28;20021;-71
2023/09/01 01:03:26;;;;;;;3.72;1.73;;;15.70;99.90;;;;;;4161427;28;20104;-72
2023/09/01 01:05:39;;;;;;;2.30;1.55;;;15.70;99.90;;;;;;4161639;28;20394;-63
2023/09/01 01:07:53;;;;;;;2.97;1.60;;;15.80;99.90;;;;;;4151362;28;20034;-61
2023/09/01 01:10:15;;;;;;;2.42;1.45;;;15.70;99.90;;;;;;4145247;28;20261;-64
2023/09/01 01:12:43;;;;;;;2.38;1.52;;;15.80;99.90;;;;;;4159393;28;20030;-64
2023/09/01 01:14:51;;;;;;;2.50;1.45;;;15.70;99.90;;;;;;4174219;28;20425;-64
2023/09/01 01:16:52;;;;;;;3.08;1.60;;;15.70;99.90;;;;;;4159275;28;20449;-65
2023/09/01 01:18:54;;;;;;;5.07;1.90;;;15.70;99.90;;;;;;4161672;28;20025;-64
2023/09/01 01:21:07;;;;;;;5.28;2.42;;;15.60;99.90;;;;;;4160812;28;20030;-65
2023/09/01 01:23:16;;;;;;;3.63;2.33;;;15.60;99.90;;;;;;4161513;28;21922;-64
2023/09/01 01:25:20;;;;;;;4.25;2.35;;;15.60;99.90;;;;;;4160765;28;20025;-64
2023/09/01 01:27:20;;;;;;;3.60;1.95;;;15.60;99.90;;;;;;4161318;28;20097;-64
2023/09/01 01:29:21;;;;;;;4.30;2.28;;;15.60;99.90;;;;;;4160902;28;20040;-64
2023/09/01 01:31:21;;;;;;;3.75;2.10;;;15.70;99.90;;;;;;4157098;28;20044;-65
2023/09/01 01:33:45;;;;;;;2.85;2.10;;;15.70;99.90;;;;;;4162995;28;20116;-64
2023/09/01 01:36:04;;;;;;;6.25;2.03;;;15.70;99.90;;;;;;4160568;28;20033;-64
2023/09/01 01:38:19;;;;;;;4.97;2.33;;;15.70;99.90;;;;;;4161074;28;20040;-64
2023/09/01 01:40:22;;;;;;;3.03;2.20;;;15.70;99.90;;;;;;4159427;28;20034;-64
2023/09/01 01:42:24;;;;;;;3.55;2.00;;;15.80;99.90;;;;;;4159231;28;20041;-64
2023/09/01 01:44:29;;;;;;;3.20;2.13;;;15.70;99.90;;;;;;4160189;28;20029;-64
2023/09/01 01:46:31;;;;;;;6.70;2.58;;;15.80;99.90;;;;;;4153767;28;20109;-65
2023/09/01 01:48:38;;;;;;;12.68;2.33;;;15.80;99.90;;;;;;4144750;28;20034;-65
2023/09/01 01:50:38;;;;;;;6.35;2.70;;;15.80;99.90;;;;;;4144205;28;20038;-65
2023/09/01 01:52:39;;;;;;;4.35;2.22;;;15.80;99.90;;;;;;4155389;28;20553;-65
2023/09/01 01:54:39;;;;;;;4.97;2.00;;;15.80;99.90;;;;;;4155284;28;20497;-64
2023/09/01 01:56:40;;;;;;;2.92;1.83;;;15.80;99.90;;;;;;4155347;28;20108;-64
2023/09/01 01:58:41;;;;;;;4.88;2.38;;;15.90;99.90;;;;;;4164666;28;20030;-65
2023/09/01 02:00:41;;;;;;;6.55;2.20;;;15.90;99.90;;;;;;4162642;28;20045;-64
2023/09/01 02:02:45;;;;;;;3.20;2.13;;;15.90;99.90;;;;;;4164232;28;20548;-64
2023/09/01 02:04:46;;;;;;;3.47;1.90;;;16.00;99.90;;;;;;4164462;28;20389;-64
2023/09/01 02:06:47;;;;;;;3.33;1.88;;;16.00;99.90;;;;;;4163767;28;20049;-64
2023/09/01 02:08:47;;;;;;;4.15;1.80;;;16.00;99.90;;;;;;4164045;28;20042;-63
2023/09/01 02:10:48;;;;;;;3.50;2.00;;;16.00;99.90;;;;;;4148469;28;20091;-70
2023/09/01 02:12:49;;;;;;;4.20;1.88;;;16.00;99.90;;;;;;4162979;28;20283;-72
2023/09/01 02:14:50;;;;;;;3.15;1.88;;;16.00;99.90;;;;;;4180411;28;20037;-73
2023/09/01 02:16:50;;;;;;;4.57;1.90;;;16.00;99.90;;;;;;4163647;28;20038;-72
2023/09/01 02:18:51;;;;;;;5.10;2.05;;;16.00;99.90;;;;;;4164088;28;20052;-72
2023/09/01 02:20:51;;;;;;;3.58;2.00;;;15.90;99.90;;;;;;4161264;28;20053;-73
2023/09/01 02:22:54;;;;;;;3.05;2.00;;;15.90;99.90;;;;;;4159483;28;20474;-73
2023/09/01 02:24:55;;;;;;;2.88;1.70;;;15.90;99.90;;;;;;4180813;28;20056;-73
2023/09/01 02:26:56;;;;;;;2.55;2.00;;;15.90;99.90;;;;;;4157189;28;20029;-73
2023/09/01 02:28:57;;;;;;;2.10;1.88;;;15.90;99.90;;;;;;4161862;28;20040;-73
2023/09/01 02:31:05;;;;;;;3.50;2.00;;;15.90;99.90;;;;;;4160317;28;20045;-73
2023/09/01 02:33:05;;;;;;;2.50;1.83;;;16.00;99.90;;;;;;4162717;28;20041;-73
2023/09/01 02:35:08;;;;;;;2.47;1.83;;;15.90;99.90;;;;;;4163032;28;20040;-74
2023/09/01 02:37:08;;;;;;;3.08;2.05;;;16.00;99.90;;;;;;4162276;28;20415;-73
2023/09/01 02:39:09;;;;;;;2.88;1.80;;;16.00;99.90;;;;;;4163832;28;20041;-73
2023/09/01 02:41:10;;;;;;;2.10;1.60;;;16.00;99.90;;;;;;4171415;28;20040;-73
2023/09/01 02:43:10;;;;;;;2.78;1.70;;;16.00;99.90;;;;;;4173014;28;20029;-72
2023/09/01 02:45:12;;;;;;;2.90;1.90;;;16.10;99.90;;;;;;4161812;28;20049;-73
2023/09/01 02:47:12;;;;;;;3.92;1.90;;;16.10;99.90;;;;;;4163287;28;20052;-73
2023/09/01 02:49:13;;;;;;;3.30;2.05;;;16.00;99.90;;;;;;4163839;28;20033;-73
2023/09/01 02:51:14;;;;;;;3.70;1.88;;;16.10;99.90;;;;;;4162579;28;20113;-73
2023/09/01 02:53:14;;;;;;;4.15;2.05;;;16.10;99.90;;;;;;4178875;28;20079;-73
2023/09/01 02:55:17;;;;;;;3.80;1.90;;;16.00;99.90;;;;;;4156405;28;20441;-73
2023/09/01 02:57:18;;;;;;;3.97;1.85;;;16.10;99.90;;;;;;4160578;28;20034;-73
2023/09/01 02:59:18;;;;;;;3.15;1.77;;;16.10;99.90;;;;;;4157659;28;20597;-70
2023/09/01 03:01:19;;;;;;;3.78;1.70;;;16.10;99.90;;;;;;4160432;28;20045;-73
2023/09/01 03:03:21;;;;;;;4.75;1.95;;;16.10;99.90;;;;;;4161872;28;20037;-72
2023/09/01 03:05:25;;;;;;;2.35;1.75;;;16.10;99.90;;;;;;4151860;28;20059;-73
2023/09/01 03:07:27;;;;;;;2.75;1.90;;;16.20;99.90;;;;;;4163079;28;20064;-72
2023/09/01 03:09:27;;;;;;;3.33;1.90;;;16.20;99.90;;;;;;4162799;28;20037;-73
2023/09/01 03:11:28;;;;;;;4.38;2.15;;;16.20;99.90;;;;;;4164744;28;20036;-73
2023/09/01 03:13:29;;;;;;;3.92;2.00;;;16.20;99.90;;;;;;4178523;28;20067;-73
2023/09/01 03:15:30;;;;;;;3.10;2.00;;;16.20;99.90;;;;;;4162444;28;20041;-72
2023/09/01 03:17:31;;;;;;;2.47;1.77;;;16.20;99.90;;;;;;4162090;28;20060;-73
2023/09/01 03:19:32;;;;;;;4.00;2.10;;;16.20;99.90;;;;;;4163104;28;20144;-73
2023/09/01 03:21:33;;;;;;;6.32;1.92;;;16.20;99.90;;;;;;4162685;28;20030;-68
2023/09/01 03:23:33;;;;;;;2.38;1.75;;;16.30;99.90;;;;;;4162902;28;20030;-68
2023/09/01 03:25:34;;;;;;;2.88;1.83;;;16.20;99.90;;;;;;4164051;28;20090;-68
2023/09/01 03:27:38;;;;;;;6.90;2.00;;;16.20;99.90;;;;;;4166309;28;20021;-68
2023/09/01 03:29:39;;;;;;;4.20;2.00;;;16.20;99.90;;;;;;4163207;28;20079;-69
2023/09/01 03:31:39;;;;;;;3.28;1.95;;;16.20;99.90;;;;;;4162395;28;20061;-63
2023/09/01 03:33:41;;;;;;;3.10;2.03;;;16.30;99.90;;;;;;4163145;28;20055;-68
2023/09/01 03:35:41;;;;;;;3.63;1.92;;;16.30;99.90;;;;;;4161036;28;20386;-69
2023/09/01 03:37:42;;;;;;;3.63;2.05;;;16.30;99.90;;;;;;4163051;28;20029;-69
2023/09/01 03:39:42;;;;;;;2.08;1.60;;;16.30;99.90;;;;;;4161294;28;20571;-68
2023/09/01 03:41:43;;;;;;;3.03;2.00;;;16.30;99.90;;;;;;4161975;28;20033;-68
2023/09/01 03:43:43;;;;;;;3.38;2.00;;;16.30;99.90;;;;;;4162775;28;20088;-68
2023/09/01 03:45:44;;;;;;;3.78;2.00;;;16.20;99.90;;;;;;4161924;28;20036;-68
2023/09/01 03:47:45;;;;;;;2.60;1.90;;;16.30;99.90;;;;;;4161482;28;20530;-68
2023/09/01 03:49:45;;;;;;;2.75;1.65;;;16.30;99.90;;;;;;4162942;28;20554;-68
2023/09/01 03:51:46;;;;;;;3.65;1.73;;;16.30;99.90;;;;;;4160973;28;20126;-68
2023/09/01 03:53:47;;;;;;;2.40;1.80;;;16.30;99.90;;;;;;4161150;28;20048;-69
2023/09/01 03:55:47;;;;;;;2.60;1.42;;;16.30;99.90;;;;;;4154633;28;20041;-69
2023/09/01 03:57:48;;;;;;;3.40;1.80;;;16.30;99.90;;;;;;4174840;28;20363;-69
2023/09/01 03:59:49;;;;;;;1.45;1.30;;;16.30;99.90;;;;;;4157326;28;20124;-69
2023/09/01 04:01:50;;;;;;;4.03;2.05;;;16.30;99.90;;;;;;4154544;28;20037;-68
2023/09/01 04:03:50;;;;;;;2.63;1.67;;;16.30;99.90;;;;;;4159567;28;20523;-68
2023/09/01 04:05:57;;;;;;;2.75;1.70;;;16.20;99.90;;;;;;4158182;28;20053;-69
2023/09/01 04:07:58;;;;;;;1.92;1.60;;;16.30;99.90;;;;;;4159479;28;20101;-69
2023/09/01 04:09:58;;;;;;;3.38;1.67;;;16.20;99.90;;;;;;4154457;28;20030;-68
2023/09/01 04:11:59;;;;;;;3.97;2.22;;;16.30;99.90;;;;;;4145318;28;20498;-68
2023/09/01 04:14:00;;;;;;;3.70;2.03;;;16.20;99.90;;;;;;4146195;28;20026;-69
2023/09/01 04:16:02;;;;;;;3.38;1.85;;;16.30;99.90;;;;;;4164563;28;20056;-69
2023/09/01 04:18:03;;;;;;;3.38;1.90;;;16.30;99.90;;;;;;4178688;28;20025;-69
2023/09/01 04:20:06;;;;;;;3.75;1.80;;;16.30;99.90;;;;;;4176922;28;20419;-69
2023/09/01 04:22:07;;;;;;;3.03;2.00;;;16.30;99.90;;;;;;4161477;28;20393;-69
2023/09/01 04:24:10;;;;;;;3.15;1.88;;;16.30;99.90;;;;;;4161365;28;20029;-68
2023/09/01 04:26:11;;;;;;;;;;;16.30;99.90;;;;;;4161860;28;20037;-68
2023/09/01 04:28:12;;;;;;;4.72;2.20;;;16.40;99.90;;;;;;4162220;28;20370;-68
2023/09/01 04:30:13;;;;;;;3.83;2.33;;;16.30;99.90;;;;;;4160876;28;20512;-69
2023/09/01 04:32:14;;;;;;;4.97;2.00;;;16.30;99.90;;;;;;4161492;28;20026;-69
2023/09/01 04:34:14;;;;;;;5.07;2.10;;;16.40;99.90;;;;;;4161941;28;20040;-68
2023/09/01 04:36:15;;;;;;;3.40;1.80;;;16.40;99.90;;;;;;4164247;28;20393;-69
2023/09/01 04:38:15;;;;;;;2.95;1.70;;;16.40;99.90;;;;;;4162003;28;20113;-69
2023/09/01 04:40:16;;;;;;;3.85;2.13;;;16.40;99.90;;;;;;4161976;28;20037;-69
2023/09/01 04:42:17;;;;;;;3.28;1.92;;;16.50;99.90;;;;;;4161396;28;20029;-69
2023/09/01 04:44:17;;;;;;;3.92;2.08;;;16.50;99.90;;;;;;4161606;28;20030;-69
2023/09/01 04:46:18;;;;;;;3.13;1.50;;;16.50;99.90;;;;;;4161102;28;20425;-69
2023/09/01 04:48:19;;;;;;;3.25;1.98;;;16.50;99.90;;;;;;4161871;28;20048;-70
2023/09/01 04:50:19;;;;;;;8.30;2.25;;;16.50;99.90;;;;;;4159503;28;20034;-69
2023/09/01 04:52:20;;;;;;;3.35;1.80;;;16.60;99.90;;;;;;4160461;28;20037;-69
2023/09/01 04:54:21;;;;;;;3.40;1.73;;;16.60;99.90;;;;;;4160186;28;20133;-69
2023/09/01 04:56:21;;;;;;;3.70;2.10;;;16.60;99.90;;;;;;4160818;28;20033;-70
2023/09/01 04:58:22;;;;;;;4.30;1.88;;;16.60;99.90;;;;;;4160302;28;20042;-70
2023/09/01 05:00:23;;;;;;;3.83;2.00;;;16.60;99.90;;;;;;4174331;28;20888;-70
2023/09/01 05:02:23;;;;;;;2.95;1.90;;;16.60;99.90;;;;;;4160494;28;22194;-70
2023/09/01 05:04:24;;;;;;;3.03;1.98;;;16.70;99.90;;;;;;4160303;28;20037;-70
2023/09/01 05:06:24;;;;;;;3.63;1.95;;;16.70;99.90;;;;;;4158982;28;20033;-70
2023/09/01 05:08:25;;;;;;;3.75;1.88;;;16.70;99.90;;;;;;4160040;28;20385;-70
2023/09/01 05:10:26;;;;;;;2.40;1.83;;;16.70;99.90;;;;;;4159049;28;20041;-70
2023/09/01 05:12:26;;;;;;;4.00;2.15;;;16.70;99.90;;;;;;4159682;28;20053;-70
2023/09/01 05:14:27;;;;;;;3.10;1.73;;;16.70;99.90;;;;;;4159899;28;20060;-70
2023/09/01 05:16:27;;;;;;;3.03;1.90;;;16.80;99.90;;;;;;4160274;28;20030;-69
2023/09/01 05:18:28;;;;;;;3.17;2.03;;;16.70;99.90;;;;;;4160564;28;20033;-70
2023/09/01 05:20:28;;;;;;;4.85;2.50;;;16.70;99.90;;;;;;4157987;28;20099;-71
2023/09/01 05:22:29;;;;;;;4.97;2.28;;;16.70;99.90;;;;;;4160448;28;20041;-70
2023/09/01 05:24:30;;;;;;;2.97;1.73;;;16.70;99.90;;;;;;4157892;28;20030;-70
2023/09/01 05:26:30;;;;;;;4.68;2.00;;;16.80;99.90;;;;;;4155393;28;20037;-70
2023/09/01 05:28:31;;;;;;;5.93;2.63;;;16.80;99.90;;;;;;4160280;28;20068;-70
2023/09/01 05:30:31;;;;;;;3.83;2.33;;;16.70;99.90;;;;;;4160812;28;20033;-70
2023/09/01 05:32:33;;;;;;;4.13;2.40;;;16.80;99.90;;;;;;4164620;28;20032;-70
2023/09/01 05:34:34;;;;;;;3.67;2.25;;;16.80;99.90;;;;;;4171106;28;20025;-70
2023/09/01 05:36:36;;;;;;;4.18;2.08;;;16.80;99.90;;;;;;4163518;28;20086;-70
2023/09/01 05:38:36;;;;;;;5.63;2.30;;;16.80;99.90;;;;;;4159269;28;20048;-70
2023/09/01 05:40:37;;;;;;;4.93;3.13;;;16.90;99.90;;;;;;4160201;28;20478;-70
2023/09/01 05:42:38;;;;;;;5.70;2.75;;;16.80;99.90;;;;;;4161012;28;20026;-71
2023/09/01 05:44:38;;;;;;;4.07;2.20;;;16.90;99.90;;;;;;4159540;28;20025;-70
2023/09/01 05:46:39;;;;;;;4.28;2.42;;;16.80;99.90;;;;;;4159251;28;20036;-70
2023/09/01 05:48:39;;;;;;;4.85;2.33;;;16.90;99.90;;;;;;4157624;28;20402;-70
2023/09/01 05:50:42;;;;;;;4.43;2.85;;;16.90;99.90;;;;;;4160244;28;20041;-70
2023/09/01 05:52:43;;;;;;;;;;;16.90;99.90;;;;;;4160270;28;20044;-70
2023/09/01 05:54:43;;;;;;;4.25;2.30;;;16.90;99.90;;;;;;4159391;28;19909;-69
2023/09/01 05:56:44;;;;;;;4.75;2.35;;;16.90;99.90;;;;;;4157964;28;20482;-69
2023/09/01 05:58:45;;;;;;;5.50;2.83;;;16.80;99.90;;;;;;4151183;28;20124;-70
2023/09/01 06:00:46;;;;;;;6.60;2.72;;;16.90;99.90;;;;;;4141796;28;20093;-71
2023/09/01 06:02:46;;;;;;;6.15;2.92;;;16.90;99.90;;;;;;4150588;28;20025;-70
2023/09/01 06:04:47;;;;;;;3.72;2.50;;;16.90;99.90;;;;;;4158648;28;20041;-69
2023/09/01 06:06:47;;;;;;;5.65;2.80;;;17.00;99.90;;;;;;4158168;28;20053;-69
2023/09/01 06:08:48;;;;;;;7.75;3.13;;;16.90;99.90;;;;;;4160227;28;20039;-70
2023/09/01 06:10:49;;;;;;;4.72;2.38;;;17.00;99.90;;;;;;4151583;28;20485;-65
2023/09/01 06:12:49;;;;;;;3.85;2.22;;;17.00;99.90;;;;;;4133957;28;20053;-68
2023/09/01 06:14:50;;;;;;;3.75;2.15;;;17.00;99.90;;;;;;4159495;28;20045;-67
2023/09/01 06:16:51;;;;;;;6.15;2.30;;;16.90;99.90;;;;;;4155863;28;20116;-68
2023/09/01 06:18:52;;;;;;;5.95;2.45;;;17.00;99.90;;;;;;4157960;28;20034;-67
2023/09/01 06:20:53;;;;;;;4.25;2.10;;;17.00;99.90;;;;;;4158043;28;20041;-68
2023/09/01 06:22:54;;;;;;;5.28;2.33;;;16.90;99.90;;;;;;4159155;28;20120;-68
2023/09/01 06:24:55;;;;;;;4.93;2.60;;;17.00;99.90;;;;;;4159496;28;20045;-68
2023/09/01 06:26:56;;;;;;;4.03;2.28;;;16.90;99.90;;;;;;4158839;28;20041;-68
2023/09/01 06:28:56;;;;;;;2.15;1.70;;;17.00;99.90;;;;;;4159002;28;20551;-68
2023/09/01 06:30:57;;;;;;;6.22;2.88;;;17.00;99.90;;;;;;4148994;28;20504;-68
2023/09/01 06:32:57;;;;;;;6.47;2.50;;;17.00;99.90;;;;;;4158898;28;20045;-68
2023/09/01 06:34:58;;;;;;;3.15;2.22;;;17.00;99.90;;;;;;4152095;28;20056;-67
2023/09/01 06:36:59;;;;;;;4.70;2.30;;;17.10;99.90;;;;;;4157835;28;20040;-68
2023/09/01 06:38:59;;;;;;;4.20;2.65;;;17.10;99.90;;;;;;4157732;28;20033;-68
2023/09/01 06:41:02;;;;;;;5.78;2.60;;;17.10;99.90;;;;;;4158189;28;20040;-69
2023/09/01 06:43:03;;;;;;;6.05;2.70;;;17.10;99.90;;;;;;4161109;28;20100;-67
2023/09/01 06:45:04;;;;;;;6.93;2.95;;;17.10;99.90;;;;;;4161739;28;20030;-69
2023/09/01 06:47:05;;;;;;;3.83;2.50;;;17.10;99.90;;;;;;4160841;28;20034;-68
2023/09/01 06:49:05;;;;;;;8.32;2.80;;;17.10;99.90;;;;;;4161922;28;20033;-68
2023/09/01 06:51:06;;;;;;;6.47;2.83;;;17.10;99.90;;;;;;4161217;28;20044;-68
2023/09/01 06:53:07;;;;;;;4.45;2.85;;;17.10;99.90;;;;;;4162082;28;20033;-68
2023/09/01 06:55:08;;;;;;;5.88;3.08;;;17.20;99.90;;;;;;4161776;28;20029;-67
2023/09/01 06:57:08;;;;;;;6.78;2.90;;;17.20;99.90;;;;;;4161239;28;20033;-67
2023/09/01 06:59:09;;;;;;;6.45;2.55;;;17.20;99.90;;;;;;4160916;28;20038;-68
2023/09/01 07:01:11;;;;;;;5.97;3.38;;;17.20;99.90;;;;;;4160730;28;20072;-68
2023/09/01 07:03:11;;;;;;;6.38;2.95;;;17.20;99.90;;;;;;4159854;28;20461;-67
2023/09/01 07:05:12;;;;;;;5.30;2.47;;;17.20;99.90;;;;;;4158634;28;20029;-68
2023/09/01 07:07:12;;;;;;;4.07;2.50;;;17.20;99.90;;;;;;4160435;28;20064;-68
2023/09/01 07:09:13;;;;;;;4.68;2.85;;;17.20;99.90;;;;;;4159232;28;20108;-67
2023/09/01 07:11:14;;;;;;;4.82;3.22;;;17.20;99.90;;;;;;4158296;28;20037;-68
2023/09/01 07:13:15;;;;;;;5.50;3.20;;;17.20;99.90;;;;;;4159500;28;20037;-68
2023/09/01 07:15:15;;;;;;;6.40;3.17;;;17.20;99.90;;;;;;4158363;28;20389;-68
2023/09/01 07:17:22;;;;;;;5.43;2.45;;;17.20;99.90;;;;;;4158424;28;20481;-68
2023/09/01 07:19:23;;;;;;;6.95;2.78;;;17.30;99.90;;;;;;4135446;28;20064;-68
2023/09/01 07:21:23;;;;;;;4.30;2.80;;;17.30;99.90;;;;;;4136961;28;20429;-61
2023/09/01 07:23:24;;;;;;;4.05;2.63;;;17.30;99.90;;;;;;4161585;28;20044;-72
2023/09/01 07:25:25;;;;;;;4.50;2.63;;;17.30;99.90;;;;;;4159324;28;20064;-71
2023/09/01 07:27:25;;;;;;;4.45;2.65;;;17.30;99.90;;;;;;4161301;28;20511;-71
2023/09/01 07:29:26;;;;;;;4.53;2.50;;;17.40;99.90;;;;;;4161238;28;20044;-72
2023/09/01 07:31:26;;;;;;;8.30;3.35;;;17.40;99.90;;;;;;4160287;28;20044;-64
2023/09/01 07:33:30;;;;;;;5.60;2.97;;;17.40;99.90;;;;;;4126678;28;20037;-70
2023/09/01 07:35:31;;;;;;;7.82;2.97;;;17.40;99.90;;;;;;4163749;28;20045;-70
2023/09/01 07:37:31;;;;;;;5.70;2.90;;;17.40;99.90;;;;;;4160706;28;20180;-70
2023/09/01 07:39:32;;;;;;;4.95;2.58;;;17.40;99.90;;;;;;4175929;28;20036;-70
2023/09/01 07:41:33;;;;;;;4.55;2.80;;;17.40;99.90;;;;;;4160584;28;20120;-63
2023/09/01 07:43:34;;;;;;;5.78;3.33;;;17.50;99.90;;;;;;4161260;28;20032;-61
2023/09/01 07:45:35;;;;;;;6.45;3.10;;;17.40;99.90;;;;;;4160295;28;20044;-61
2023/09/01 07:47:36;;;;;;;2.60;2.30;;;17.50;99.90;;;;;;4149987;28;20179;-61
2023/09/01 07:49:36;;;;;;;5.78;3.00;;;17.60;99.90;;;;;;4159577;28;20057;-61
2023/09/01 07:51:39;;;;;;;4.90;2.75;;;17.50;99.90;;;;;;4159764;28;20037;-61
2023/09/01 07:53:40;;;;;;;5.80;3.20;;;17.50;99.90;;;;;;4160151;28;20108;-61
2023/09/01 07:55:41;;;;;;;4.30;2.20;;;17.60;99.90;;;;;;4160503;28;20041;-61
2023/09/01 07:57:42;;;;;;;6.00;2.55;;;17.60;99.90;;;;;;4160245;28;20033;-61
2023/09/01 07:59:42;;;;;;;4.45;2.33;;;17.60;99.90;;;;;;4158786;28;20080;-61
2023/09/01 08:01:45;;;;;;;4.72;2.75;;;17.60;99.90;;;;;;4159872;28;20033;-62
2023/09/01 08:03:45;;;;;;;4.70;2.63;;;17.60;99.90;;;;;;4157697;28;20034;-61
2023/09/01 08:05:46;;;;;;;4.65;2.67;;;17.50;99.90;;;;;;4153257;28;20068;-61
2023/09/01 08:07:49;;;;;;;2.90;2.00;;;17.60;99.90;;;;;;4150685;28;20022;-62
2023/09/01 08:09:50;;;;;;;4.03;2.50;;;17.60;99.90;;;;;;4154229;28;20049;-61
2023/09/01 08:11:50;;;;;;;5.20;2.45;;;17.70;99.90;;;;;;4152993;28;20045;-61
2023/09/01 08:13:51;;;;;;;3.00;2.28;;;17.70;99.90;;;;;;4153351;28;20046;-61
2023/09/01 08:15:51;;;;;;;4.10;2.60;;;17.70;99.90;;;;;;4148439;28;20037;-63
2023/09/01 08:17:53;;;;;;;4.90;2.75;;;17.70;99.90;;;;;;4154264;28;20146;-62
2023/09/01 08:19:53;;;;;;;3.63;2.60;;;17.60;99.90;;;;;;4154563;28;20509;-62
2023/09/01 08:21:56;;;;;;;5.90;2.40;;;17.60;99.90;;;;;;4152437;28;20040;-61
2023/09/01 08:23:57;;;;;;;3.70;2.55;;;17.70;99.90;;;;;;4148967;28;20084;-61
2023/09/01 08:25:57;;;;;;;4.57;2.50;;;17.70;99.90;;;;;;4175818;28;20040;-61
2023/09/01 08:27:58;;;;;;;5.28;2.45;;;17.70;99.90;;;;;;4153694;28;20056;-61
2023/09/01 08:29:59;;;;;;;5.05;2.65;;;17.70;99.90;;;;;;4153385;28;20057;-61
2023/09/01 08:32:01;;;;;;;4.15;2.30;;;17.70;99.90;;;;;;4152088;28;20036;-61
2023/09/01 08:34:02;;;;;;;3.30;2.17;;;17.80;99.90;;;;;;4152204;28;20252;-61
2023/09/01 08:36:03;;;;;;;3.22;2.13;;;17.80;99.90;;;;;;4148744;28;20774;-61
2023/09/01 08:38:05;;;;;;;3.53;2.40;;;17.80;99.90;;;;;;4136575;28;20030;-61
2023/09/01 08:40:11;;;;;;;4.95;2.65;;;17.80;99.90;;;;;;4155314;28;20568;-61
2023/09/01 08:46:34;;;;;;;3.90;2.70;;;17.80;99.90;;;;;;4139943;22;20118;-65
2023/09/01 08:48:34;;;;;;;4.53;2.67;;;17.80;99.90;;;;;;4086739;28;20041;-71
2023/09/01 08:50:36;;;;;;;7.15;2.90;;;17.80;99.90;;;;;;4165826;28;20665;-66
2023/09/01 08:52:38;;;;;;;3.55;2.30;;;17.80;99.90;;;;;;4097498;28;20602;-66
2023/09/01 08:54:39;;;;;;;3.95;2.75;;;17.80;99.90;;;;;;4078934;28;20071;-66
2023/09/01 08:56:40;;;;;;;3.03;2.25;;;17.80;99.90;;;;;;4164659;28;20029;-66
2023/09/01 08:58:41;;;;;;;6.35;2.50;;;17.90;99.90;;;;;;4169987;28;20036;-66
2023/09/01 09:00:42;;;;;;;3.17;2.28;;;17.80;99.90;;;;;;4167210;28;20083;-66
2023/09/01 09:02:44;;;;;;;6.88;2.88;;;17.80;99.90;;;;;;4168979;28;20057;-66
2023/09/01 09:04:47;;;;;;;4.82;2.97;;;17.80;99.90;;;;;;4167251;28;20124;-66
2023/09/01 09:06:47;;;;;;;7.85;2.67;;;17.80;99.90;;;;;;4172164;28;20051;-66
2023/09/01 09:09:16;;;;;;;3.75;2.50;;;17.80;99.90;;;;;;4169853;28;20061;-66
2023/09/01 09:11:17;;;;;;;6.82;2.42;;;17.80;99.90;;;;;;4169938;28;20457;-66
2023/09/01 09:13:24;;;;;;;4.10;2.70;;;17.80;99.90;;;;;;4173769;28;20151;-66
2023/09/01 09:15:24;;;;;;;3.20;2.10;;;17.80;99.90;;;;;;4167692;28;20873;-66
2023/09/01 09:17:45;;;;;;;2.80;2.15;;;17.70;99.90;;;;;;4168225;28;20065;-66
2023/09/01 09:19:59;;;;;;;8.43;3.28;;;17.80;99.90;;;;;;4165690;28;20481;-66
2023/09/01 09:22:06;;;;;;;4.32;2.83;;;17.70;99.90;;;;;;4170255;28;20461;-66
2023/09/01 09:24:07;;;;;;;4.57;2.42;;;17.70;99.90;;;;;;4168341;28;20120;-66
2023/09/01 09:26:08;;;;;;;6.28;2.55;;;17.70;99.90;;;;;;4170022;28;20061;-66
2023/09/01 09:28:12;;;;;;;4.88;2.20;;;17.70;99.90;;;;;;4168461;28;20052;-67
2023/09/01 09:30:13;;;;;;;2.85;2.20;;;17.70;99.90;;;;;;4165273;28;20048;-66
2023/09/01 09:32:24;;;;;;;3.85;2.30;;;17.70;99.90;;;;;;4170592;28;20462;-66
2023/09/01 09:34:24;;;;;;;3.45;2.13;;;17.80;99.90;;;;;;4167787;28;20041;-66
2023/09/01 09:36:36;;;;;;;4.10;2.80;;;17.70;99.90;;;;;;4170122;28;21126;-66
2023/09/01 09:38:46;;;;;;;3.08;2.20;;;17.80;99.90;;;;;;4169663;28;20087;-66
2023/09/01 09:40:57;;;;;;;4.22;2.10;;;17.80;99.90;;;;;;4171544;28;20030;-65
2023/09/01 09:42:59;;;;;;;3.50;2.40;;;17.80;99.90;;;;;;4169906;28;20041;-66
2023/09/01 09:44:59;;;;;;;3.88;2.20;;;17.80;99.90;;;;;;4170055;28;20083;-65
2023/09/01 09:47:10;;;;;;;5.30;2.20;;;17.80;99.90;;;;;;4169904;28;20037;-65
2023/09/01 09:49:15;;;;;;;5.55;2.50;;;17.70;99.90;;;;;;4172047;28;20090;-66
2023/09/01 09:51:18;;;;;;;4.93;2.28;;;17.70;99.90;;;;;;4171336;28;20534;-65
2023/09/01 09:53:23;;;;;;;2.90;2.00;;;17.70;99.90;;;;;;4133834;28;20122;-65
2023/09/01 09:55:29;;;;;;;8.15;2.40;;;17.70;99.90;;;;;;4167649;28;20037;-68
2023/09/01 09:57:31;;;;;;;6.05;2.33;;;17.60;99.90;;;;;;4169278;28;20535;-68
2023/09/01 09:59:45;;;;;;;6.28;2.00;;;17.70;99.90;;;;;;4169656;28;20036;-68
2023/09/01 10:01:47;;;;;;;3.95;2.63;;;17.60;99.90;;;;;;4169657;28;20116;-68
2023/09/01 10:03:49;;;;;;;3.03;1.83;;;17.60;99.90;;;;;;4170562;28;20068;-68
2023/09/01 10:05:54;;;;;;;3.13;2.30;;;17.60;99.90;;;;;;4171488;28;20477;-68
2023/09/01 10:07:57;;;;;;;3.28;2.20;;;17.60;99.90;;;;;;4169909;28;20068;-68
2023/09/01 10:09:58;;;;;;;;;;;17.60;99.90;;;;;;4172120;28;20062;-68
2023/09/01 10:11:59;;;;;;;3.97;2.25;;;17.60;99.90;;;;;;4166874;28;19936;-68
2023/09/01 10:14:00;;;;;;;2.58;2.17;;;17.60;99.90;;;;;;4165329;28;20045;-68
2023/09/01 10:16:02;;;;;;;4.05;2.42;;;17.60;99.90;;;;;;4167828;28;20056;-67
2023/09/01 10:18:08;;;;;;;2.72;2.00;;;17.60;99.90;;;;;;4171936;28;20051;-67
2023/09/01 10:20:09;;;;;;;3.50;2.22;;;17.60;99.90;;;;;;4171206;28;20029;-67
2023/09/01 10:22:10;;;;;;;3.65;2.38;;;17.60;99.90;;;;;;4174039;28;20124;-67
2023/09/01 10:24:16;;;;;;;2.80;2.05;;;17.60;99.90;;;;;;4170895;28;20489;-67
2023/09/01 10:26:28;;;;;;;3.90;2.25;;;17.60;99.90;;;;;;4174416;28;20140;-68
2023/09/01 10:28:29;;;;;;;4.45;2.80;;;17.60;99.90;;;;;;4169986;28;20085;-67
2023/09/01 10:30:31;;;;;;;4.20;2.50;;;17.60;99.90;;;;;;4168514;28;20053;-68
2023/09/01 10:32:32;;;;;;;3.15;2.03;;;17.60;99.90;;;;;;4168344;28;20045;-67
2023/09/01 10:34:32;;;;;;;3.15;2.10;;;17.60;99.90;;;;;;4169109;28;20071;-68
2023/09/01 10:36:34;;;;;;;3.72;1.95;;;17.60;99.90;;;;;;4185388;28;20032;-68
2023/09/01 10:38:35;;;;;;;3.00;1.80;;;17.60;99.90;;;;;;4170420;28;20419;-67
2023/09/01 10:40:59;;;;;;;2.92;1.58;;;17.60;99.90;;;;;;4170677;28;20041;-67